createdAt,value
2016-08-04T00:00:26.766Z,22.6
2016-08-04T00:01:26.784Z,22.6
2016-08-04T00:02:26.792Z,22.57
2016-08-04T00:03:26.809Z,22.64
2016-08-04T00:04:26.807Z,22.61
2016-08-04T00:05:26.797Z,22.6
2016-08-04T00:06:26.822Z,22.57
2016-08-04T00:07:26.840Z,22.59
2016-08-04T00:08:26.837Z,22.63
2016-08-04T00:09:26.856Z,22.57
2016-08-04T00:10:26.860Z,22.57
2016-08-04T00:11:26.856Z,22.61
2016-08-04T00:12:26.891Z,22.6
2016-08-04T00:13:26.876Z,22.59
2016-08-04T00:14:26.877Z,22.6
2016-08-04T00:15:26.922Z,22.55
2016-08-04T00:16:26.922Z,22.63
2016-08-04T00:17:26.917Z,22.61
2016-08-04T00:18:26.929Z,22.57
2016-08-04T00:20:26.957Z,22.57
2016-08-04T00:21:26.977Z,22.6
2016-08-04T00:22:26.961Z,22.57
2016-08-04T00:23:26.983Z,22.6
2016-08-04T00:24:26.986Z,22.6
2016-08-04T00:25:26.982Z,22.57
2016-08-04T00:26:27.000Z,22.59
2016-08-04T00:27:27.011Z,22.6
2016-08-04T00:28:27.022Z,22.54
2016-08-04T00:29:27.039Z,22.48
2016-08-04T00:30:27.753Z,22.57
2016-08-04T00:31:27.044Z,22.54
2016-08-04T00:32:27.051Z,22.57
2016-08-04T00:33:27.055Z,22.57
2016-08-04T00:34:27.070Z,22.51
2016-08-04T00:35:27.091Z,22.55
2016-08-04T00:36:27.115Z,22.59
2016-08-04T00:37:27.080Z,22.51
2016-08-04T00:38:27.126Z,22.51
2016-08-04T00:39:27.125Z,22.49
2016-08-04T00:40:27.115Z,22.55
2016-08-04T00:41:27.129Z,22.48
2016-08-04T00:42:27.171Z,22.54
2016-08-04T00:43:27.147Z,22.48
2016-08-04T00:44:27.156Z,22.51
2016-08-04T00:45:27.156Z,22.55
2016-08-04T00:46:27.189Z,22.51
2016-08-04T00:47:27.203Z,22.55
2016-08-04T00:48:27.200Z,22.49
2016-08-04T00:49:27.210Z,22.48
2016-08-04T00:50:27.212Z,22.46
2016-08-04T00:51:27.234Z,22.48
2016-08-04T00:52:27.249Z,22.59
2016-08-04T00:53:27.243Z,22.46
2016-08-04T00:54:27.254Z,22.48
2016-08-04T00:55:27.268Z,22.45
2016-08-04T00:56:27.255Z,22.51
2016-08-04T00:57:27.271Z,22.51
2016-08-04T00:58:27.307Z,22.48
2016-08-04T00:59:27.287Z,22.45
2016-08-04T01:00:27.298Z,22.46
2016-08-04T01:01:27.299Z,22.44
2016-08-04T01:02:27.319Z,22.51
2016-08-04T01:03:27.314Z,22.39
2016-08-04T01:04:27.332Z,22.45
2016-08-04T01:05:27.341Z,22.44
2016-08-04T01:06:27.345Z,22.41
2016-08-04T01:07:27.382Z,22.42
2016-08-04T01:08:27.391Z,22.36
2016-08-04T01:09:27.382Z,22.44
2016-08-04T01:10:27.406Z,22.45
2016-08-04T01:11:27.405Z,22.39
2016-08-04T01:12:27.407Z,22.41
2016-08-04T01:13:27.417Z,22.45
2016-08-04T01:14:27.450Z,22.42
2016-08-04T01:15:27.420Z,22.41
2016-08-04T01:16:27.420Z,22.42
2016-08-04T01:17:27.433Z,22.42
2016-08-04T01:18:27.440Z,22.44
2016-08-04T01:19:27.463Z,22.41
2016-08-04T01:20:27.496Z,22.44
2016-08-04T01:21:27.494Z,22.46
2016-08-04T01:22:27.497Z,22.46
2016-08-04T01:23:27.515Z,22.38
2016-08-04T01:24:27.528Z,22.36
2016-08-04T01:25:27.526Z,22.44
2016-08-04T01:26:27.535Z,22.41
2016-08-04T01:27:27.534Z,22.41
2016-08-04T01:28:27.550Z,22.48
2016-08-04T01:29:27.563Z,22.38
2016-08-04T01:30:27.551Z,22.36
2016-08-04T01:31:27.554Z,22.38
2016-08-04T01:32:27.567Z,22.29
2016-08-04T01:33:27.592Z,22.45
2016-08-04T01:34:27.594Z,22.42
2016-08-04T01:35:27.618Z,22.38
2016-08-04T01:36:27.621Z,22.34
2016-08-04T01:37:27.628Z,22.38
2016-08-04T01:38:27.641Z,22.31
2016-08-04T01:39:27.666Z,22.36
2016-08-04T01:40:27.658Z,22.39
2016-08-04T01:41:27.646Z,22.36
2016-08-04T01:42:27.694Z,22.33
2016-08-04T01:43:27.682Z,22.38
2016-08-04T01:44:27.694Z,22.36
2016-08-04T01:45:27.714Z,22.36
2016-08-04T01:46:27.720Z,22.44
2016-08-04T01:47:27.726Z,22.36
2016-08-04T01:48:27.740Z,22.36
2016-08-04T01:49:27.740Z,22.41
2016-08-04T01:50:27.736Z,22.39
2016-08-04T01:51:27.729Z,22.36
2016-08-04T01:52:27.769Z,22.36
2016-08-04T01:53:27.778Z,22.39
2016-08-04T01:54:27.774Z,22.41
2016-08-04T01:55:27.790Z,22.41
2016-08-04T01:56:27.798Z,22.36
2016-08-04T01:57:27.813Z,22.39
2016-08-04T01:58:27.800Z,22.34
2016-08-04T01:59:27.825Z,22.36
2016-08-04T02:00:27.829Z,22.41
2016-08-04T02:01:27.831Z,22.41
2016-08-04T02:02:27.854Z,22.38
2016-08-04T02:03:27.866Z,22.38
2016-08-04T02:04:27.867Z,22.38
2016-08-04T02:05:27.859Z,22.44
2016-08-04T02:06:27.871Z,22.33
2016-08-04T02:07:27.879Z,22.38
2016-08-04T02:08:27.925Z,22.31
2016-08-04T02:09:27.919Z,22.33
2016-08-04T02:10:27.940Z,22.45
2016-08-04T02:11:27.922Z,22.34
2016-08-04T02:12:27.952Z,22.31
2016-08-04T02:13:27.946Z,22.33
2016-08-04T02:14:27.974Z,22.34
2016-08-04T02:15:27.966Z,22.33
2016-08-04T02:16:27.960Z,22.34
2016-08-04T02:17:28.003Z,22.3
2016-08-04T02:18:28.002Z,22.33
2016-08-04T02:19:27.994Z,22.33
2016-08-04T02:20:28.014Z,22.27
2016-08-04T02:21:28.013Z,22.34
2016-08-04T02:22:28.005Z,22.36
2016-08-04T02:23:28.025Z,22.26
2016-08-04T02:24:28.037Z,22.24
2016-08-04T02:25:28.048Z,22.34
2016-08-04T02:26:28.050Z,22.29
2016-08-04T02:27:28.078Z,22.23
2016-08-04T02:28:28.074Z,22.23
2016-08-04T02:29:28.084Z,22.26
2016-08-04T02:30:28.085Z,22.24
2016-08-04T02:31:28.076Z,22.24
2016-08-04T02:32:28.118Z,22.23
2016-08-04T02:33:28.127Z,22.27
2016-08-04T02:34:28.128Z,22.23
2016-08-04T02:35:28.142Z,22.18
2016-08-04T02:36:28.143Z,22.24
2016-08-04T02:37:28.183Z,22.24
2016-08-04T02:38:28.150Z,22.26
2016-08-04T02:39:28.173Z,22.26
2016-08-04T02:40:28.161Z,22.27
2016-08-04T02:41:28.187Z,22.23
2016-08-04T02:42:28.189Z,22.24
2016-08-04T02:43:28.201Z,22.18
2016-08-04T02:44:28.207Z,22.26
2016-08-04T02:45:28.210Z,22.26
2016-08-04T02:46:28.232Z,22.27
2016-08-04T02:47:28.243Z,22.27
2016-08-04T02:48:28.259Z,22.29
2016-08-04T02:49:28.234Z,22.22
2016-08-04T02:50:28.262Z,22.24
2016-08-04T02:51:28.250Z,22.22
2016-08-04T02:52:28.267Z,22.18
2016-08-04T02:53:28.265Z,22.23
2016-08-04T02:54:28.297Z,22.27
2016-08-04T02:55:28.300Z,22.23
2016-08-04T02:56:28.308Z,22.27
2016-08-04T02:57:28.315Z,22.14
2016-08-04T02:58:28.332Z,22.18
2016-08-04T02:59:28.393Z,22.23
2016-08-04T03:00:28.333Z,22.14
2016-08-04T03:01:28.379Z,22.12
2016-08-04T03:02:28.375Z,22.14
2016-08-04T03:03:28.368Z,22.23
2016-08-04T03:04:28.387Z,22.26
2016-08-04T03:06:28.381Z,22.24
2016-08-04T03:07:28.400Z,22.11
2016-08-04T03:08:28.405Z,22.2
2016-08-04T03:09:28.420Z,22.11
2016-08-04T03:10:28.438Z,22.16
2016-08-04T03:11:28.429Z,22.16
2016-08-04T03:12:28.447Z,22.11
2016-08-04T03:13:28.467Z,22.24
2016-08-04T03:14:28.486Z,22.2
2016-08-04T03:15:28.457Z,22.22
2016-08-04T03:16:28.495Z,22.18
2016-08-04T03:17:28.496Z,22.23
2016-08-04T03:18:28.484Z,22.23
2016-08-04T03:19:28.535Z,22.16
2016-08-04T03:20:28.548Z,22.16
2016-08-04T03:21:28.523Z,22.16
2016-08-04T03:22:28.539Z,22.2
2016-08-04T03:23:28.561Z,22.23
2016-08-04T03:24:28.568Z,22.24
2016-08-04T03:25:28.576Z,22.22
2016-08-04T03:26:28.576Z,22.23
2016-08-04T03:27:28.574Z,22.12
2016-08-04T03:28:28.619Z,22.22
2016-08-04T03:29:28.608Z,22.23
2016-08-04T03:30:28.615Z,22.12
2016-08-04T03:31:28.617Z,22.23
2016-08-04T03:32:28.632Z,22.23
2016-08-04T03:33:28.628Z,22.16
2016-08-04T03:34:28.651Z,22.2
2016-08-04T03:36:28.654Z,22.18
2016-08-04T03:37:28.659Z,22.16
2016-08-04T03:38:28.691Z,22.23
2016-08-04T03:39:28.702Z,22.23
2016-08-04T03:40:28.707Z,22.22
2016-08-04T03:41:28.680Z,22.18
2016-08-04T03:42:28.735Z,22.24
2016-08-04T03:43:28.732Z,22.22
2016-08-04T03:44:28.725Z,22.22
2016-08-04T03:45:28.730Z,22.2
2016-08-04T03:46:28.732Z,22.05
2016-08-04T03:47:28.746Z,22.23
2016-08-04T03:48:28.753Z,22.23
2016-08-04T03:49:28.780Z,22.2
2016-08-04T03:51:28.774Z,22.26
2016-08-04T03:52:28.786Z,22.2
2016-08-04T03:53:28.810Z,22.23
2016-08-04T03:54:28.817Z,22.24
2016-08-04T03:55:28.821Z,22.23
2016-08-04T03:56:28.823Z,22.22
2016-08-04T03:57:28.832Z,22.23
2016-08-04T03:58:28.869Z,22.18
2016-08-04T03:59:28.907Z,22.15
2016-08-04T04:00:28.858Z,22.23
2016-08-04T04:01:28.854Z,22.26
2016-08-04T04:02:28.883Z,22.16
2016-08-04T04:03:28.891Z,22.24
2016-08-04T04:04:28.934Z,22.18
2016-08-04T04:05:28.908Z,22.18
2016-08-04T04:06:28.925Z,22.2
2016-08-04T04:07:28.909Z,22.16
2016-08-04T04:08:28.942Z,22.22
2016-08-04T04:09:28.941Z,22.16
2016-08-04T04:10:28.929Z,22.22
2016-08-04T04:11:28.969Z,22.2
2016-08-04T04:12:28.967Z,22.16
2016-08-04T04:13:28.980Z,22.2
2016-08-04T04:14:28.991Z,22.22
2016-08-04T04:15:28.983Z,22.22
2016-08-04T04:16:29.001Z,22.18
2016-08-04T04:17:28.991Z,22.2
2016-08-04T04:18:29.029Z,22.16
2016-08-04T04:19:29.036Z,22.18
2016-08-04T04:21:29.045Z,22.2
2016-08-04T04:22:29.049Z,22.23
2016-08-04T04:23:29.071Z,22.16
2016-08-04T04:24:29.055Z,22.2
2016-08-04T04:25:29.096Z,22.2
2016-08-04T04:26:29.087Z,22.16
2016-08-04T04:27:29.087Z,22.15
2016-08-04T04:28:29.110Z,22.24
2016-08-04T04:29:29.139Z,22.22
2016-08-04T04:30:29.119Z,22.2
2016-08-04T04:31:29.125Z,22.22
2016-08-04T04:32:29.118Z,22.27
2016-08-04T04:33:29.157Z,22.24
2016-08-04T04:34:29.151Z,22.18
2016-08-04T04:35:29.158Z,22.2
2016-08-04T04:36:29.179Z,22.26
2016-08-04T04:37:29.185Z,22.24
2016-08-04T04:38:29.215Z,22.26
2016-08-04T04:39:29.192Z,22.2
2016-08-04T04:40:29.217Z,22.2
2016-08-04T04:41:29.226Z,22.2
2016-08-04T04:42:29.229Z,22.24
2016-08-04T04:43:29.240Z,22.22
2016-08-04T04:44:29.951Z,22.23
2016-08-04T04:45:29.269Z,22.22
2016-08-04T04:46:29.259Z,22.2
2016-08-04T04:47:29.942Z,22.22
2016-08-04T04:48:29.257Z,22.26
2016-08-04T04:49:29.273Z,22.26
2016-08-04T04:50:29.303Z,22.2
2016-08-04T04:51:29.297Z,22.15
2016-08-04T04:52:29.291Z,22.23
2016-08-04T04:53:29.331Z,22.23
2016-08-04T04:54:29.334Z,22.22
2016-08-04T04:55:29.310Z,22.2
2016-08-04T04:56:29.340Z,22.22
2016-08-04T04:57:29.340Z,22.23
2016-08-04T04:58:29.376Z,22.24
2016-08-04T04:59:29.421Z,22.22
2016-08-04T05:00:29.375Z,22.22
2016-08-04T05:01:29.387Z,22.2
2016-08-04T05:02:29.389Z,22.14
2016-08-04T05:03:29.414Z,22.22
2016-08-04T05:04:29.431Z,22.22
2016-08-04T05:05:29.421Z,22.15
2016-08-04T05:06:29.426Z,22.16
2016-08-04T05:07:29.456Z,22.24
2016-08-04T05:08:29.454Z,22.16
2016-08-04T05:09:29.471Z,22.14
2016-08-04T05:10:29.477Z,22.22
2016-08-04T05:11:29.469Z,22.23
2016-08-04T05:12:29.500Z,22.22
2016-08-04T05:13:29.488Z,22.16
2016-08-04T05:14:29.494Z,22.26
2016-08-04T05:15:30.202Z,22.18
2016-08-04T05:16:29.524Z,22.24
2016-08-04T05:17:29.512Z,22.27
2016-08-04T05:18:29.534Z,22.23
2016-08-04T05:19:29.561Z,22.24
2016-08-04T05:20:29.552Z,22.15
2016-08-04T05:21:29.538Z,22.16
2016-08-04T05:22:29.566Z,22.22
2016-08-04T05:23:29.582Z,22.26
2016-08-04T05:24:29.584Z,22.22
2016-08-04T05:25:29.599Z,22.24
2016-08-04T05:26:29.599Z,22.24
2016-08-04T05:27:29.594Z,22.15
2016-08-04T05:28:29.623Z,22.16
2016-08-04T05:29:29.615Z,22.18
2016-08-04T05:30:29.643Z,22.16
2016-08-04T05:31:29.623Z,22.24
2016-08-04T05:32:29.641Z,22.26
2016-08-04T05:33:29.641Z,22.18
2016-08-04T05:34:29.667Z,22.2
2016-08-04T05:35:29.665Z,22.12
2016-08-04T05:36:29.699Z,22.15
2016-08-04T05:37:29.710Z,22.2
2016-08-04T05:38:29.695Z,22.18
2016-08-04T05:39:29.724Z,22.18
2016-08-04T05:40:29.711Z,22.14
2016-08-04T05:41:29.731Z,22.08
2016-08-04T05:42:29.760Z,22.2
2016-08-04T05:43:29.752Z,22.23
2016-08-04T05:44:29.782Z,22.26
2016-08-04T05:45:29.774Z,22.18
2016-08-04T05:46:29.790Z,22.26
2016-08-04T05:47:29.790Z,22.2
2016-08-04T05:48:29.794Z,22.16
2016-08-04T05:49:29.814Z,22.22
2016-08-04T05:50:29.809Z,22.2
2016-08-04T05:51:29.840Z,22.14
2016-08-04T05:52:29.824Z,22.16
2016-08-04T05:53:29.830Z,22.16
2016-08-04T05:54:29.848Z,22.12
2016-08-04T05:55:29.874Z,22.14
2016-08-04T05:56:29.871Z,22.2
2016-08-04T05:57:29.862Z,22.18
2016-08-04T05:58:29.867Z,22.15
2016-08-04T05:59:29.873Z,22.16
2016-08-04T06:00:29.898Z,22.22
2016-08-04T06:01:29.904Z,22.08
2016-08-04T06:02:29.915Z,22.26
2016-08-04T06:03:29.931Z,22.12
2016-08-04T06:04:29.929Z,22.22
2016-08-04T06:05:29.936Z,22.26
2016-08-04T06:06:29.953Z,22.15
2016-08-04T06:07:29.953Z,22.14
2016-08-04T06:08:29.974Z,22.15
2016-08-04T06:09:29.973Z,22.15
2016-08-04T06:10:29.995Z,22.15
2016-08-04T06:11:29.985Z,22.29
2016-08-04T06:12:29.986Z,22.23
2016-08-04T06:13:30.001Z,22.23
2016-08-04T06:14:30.012Z,22.22
2016-08-04T06:15:30.013Z,22.2
2016-08-04T06:16:30.024Z,22.14
2016-08-04T06:17:30.048Z,22.29
2016-08-04T06:18:30.049Z,22.26
2016-08-04T06:19:30.058Z,22.3
2016-08-04T06:20:30.055Z,22.23
2016-08-04T06:21:30.082Z,22.31
2016-08-04T06:22:30.088Z,22.24
2016-08-04T06:23:30.097Z,22.24
2016-08-04T06:24:30.093Z,22.23
2016-08-04T06:25:30.104Z,22.24
2016-08-04T06:26:30.114Z,22.27
2016-08-04T06:27:30.150Z,22.2
2016-08-04T06:28:30.130Z,22.24
2016-08-04T06:29:30.133Z,22.22
2016-08-04T06:30:30.171Z,22.23
2016-08-04T06:31:30.181Z,22.23
2016-08-04T06:32:30.173Z,22.29
2016-08-04T06:33:30.183Z,22.23
2016-08-04T06:34:30.179Z,22.24
2016-08-04T06:35:30.223Z,22.22
2016-08-04T06:36:30.209Z,22.18
2016-08-04T06:37:30.204Z,22.24
2016-08-04T06:38:30.236Z,22.27
2016-08-04T06:39:30.248Z,22.22
2016-08-04T06:40:30.254Z,22.29
2016-08-04T06:41:30.260Z,22.24
2016-08-04T06:42:30.272Z,22.29
2016-08-04T06:43:30.255Z,22.24
2016-08-04T06:44:30.270Z,22.23
2016-08-04T06:45:30.985Z,22.27
2016-08-04T06:46:30.277Z,22.23
2016-08-04T06:47:30.310Z,22.23
2016-08-04T06:48:30.321Z,22.33
2016-08-04T06:49:30.323Z,22.22
2016-08-04T06:50:30.330Z,22.29
2016-08-04T06:51:30.342Z,22.31
2016-08-04T06:52:30.350Z,22.27
2016-08-04T06:53:30.366Z,22.3
2016-08-04T06:54:30.369Z,22.38
2016-08-04T06:55:30.378Z,22.41
2016-08-04T06:56:30.364Z,22.42
2016-08-04T06:57:31.101Z,22.33
2016-08-04T06:58:30.396Z,22.33
2016-08-04T06:59:30.657Z,22.34
2016-08-04T07:00:30.428Z,22.38
2016-08-04T07:01:30.424Z,22.39
2016-08-04T07:02:30.441Z,22.34
2016-08-04T07:03:30.437Z,22.36
2016-08-04T07:04:30.444Z,22.39
2016-08-04T07:05:30.463Z,22.36
2016-08-04T07:06:30.479Z,22.38
2016-08-04T07:07:30.475Z,22.38
2016-08-04T07:08:30.514Z,22.34
2016-08-04T07:09:30.487Z,22.36
2016-08-04T07:10:30.509Z,22.31
2016-08-04T07:11:30.503Z,22.45
2016-08-04T07:12:30.507Z,22.38
2016-08-04T07:13:30.517Z,22.38
2016-08-04T07:14:30.519Z,22.41
2016-08-04T07:15:30.542Z,22.46
2016-08-04T07:16:30.556Z,22.36
2016-08-04T07:17:30.566Z,22.44
2016-08-04T07:18:30.575Z,22.46
2016-08-04T07:19:30.588Z,22.42
2016-08-04T07:20:30.584Z,22.38
2016-08-04T07:21:30.628Z,22.42
2016-08-04T07:22:30.619Z,22.45
2016-08-04T07:23:30.615Z,22.42
2016-08-04T07:24:30.611Z,22.42
2016-08-04T07:25:30.618Z,22.42
2016-08-04T07:26:30.650Z,22.51
2016-08-04T07:27:30.636Z,22.39
2016-08-04T07:28:30.668Z,22.44
2016-08-04T07:29:30.665Z,22.42
2016-08-04T07:30:30.684Z,22.42
2016-08-04T07:31:30.666Z,22.46
2016-08-04T07:32:30.695Z,22.44
2016-08-04T07:33:30.684Z,22.46
2016-08-04T07:34:30.704Z,22.51
2016-08-04T07:35:30.706Z,22.51
2016-08-04T07:36:30.710Z,22.51
2016-08-04T07:37:30.737Z,22.54
2016-08-04T07:38:30.726Z,22.54
2016-08-04T07:39:30.744Z,22.54
2016-08-04T07:40:30.765Z,22.55
2016-08-04T07:41:30.781Z,22.57
2016-08-04T07:42:30.782Z,22.57
2016-08-04T07:43:30.795Z,22.57
2016-08-04T07:44:30.786Z,22.55
2016-08-04T07:45:30.812Z,22.57
2016-08-04T07:46:30.834Z,22.59
2016-08-04T07:47:30.823Z,22.63
2016-08-04T07:48:30.854Z,22.61
2016-08-04T07:49:30.867Z,22.6
2016-08-04T07:50:30.846Z,22.6
2016-08-04T07:51:30.847Z,22.54
2016-08-04T07:52:30.875Z,22.66
2016-08-04T07:53:30.864Z,22.63
2016-08-04T07:54:30.898Z,22.59
2016-08-04T07:55:30.901Z,22.59
2016-08-04T07:56:30.905Z,22.59
2016-08-04T07:57:30.919Z,22.67
2016-08-04T07:58:30.921Z,22.57
2016-08-04T07:59:30.934Z,22.7
2016-08-04T08:00:30.952Z,22.71
2016-08-04T08:01:30.932Z,22.67
2016-08-04T08:02:30.970Z,22.67
2016-08-04T08:03:30.973Z,22.6
2016-08-04T08:04:31.001Z,22.67
2016-08-04T08:05:31.004Z,22.63
2016-08-04T08:06:30.983Z,22.7
2016-08-04T08:07:31.011Z,22.67
2016-08-04T08:08:31.006Z,22.73
2016-08-04T08:09:31.018Z,22.71
2016-08-04T08:10:31.035Z,22.7
2016-08-04T08:11:31.037Z,22.69
2016-08-04T08:12:31.070Z,22.69
2016-08-04T08:13:31.076Z,22.78
2016-08-04T08:14:31.086Z,22.78
2016-08-04T08:15:31.096Z,22.76
2016-08-04T08:16:31.095Z,22.76
2016-08-04T08:17:31.105Z,22.75
2016-08-04T08:18:31.115Z,22.78
2016-08-04T08:19:31.114Z,22.7
2016-08-04T08:20:31.137Z,22.73
2016-08-04T08:22:31.141Z,22.73
2016-08-04T08:23:31.147Z,22.73
2016-08-04T08:24:31.239Z,22.71
2016-08-04T08:25:31.149Z,22.71
2016-08-04T08:26:31.182Z,22.76
2016-08-04T08:27:31.189Z,22.82
2016-08-04T08:28:31.195Z,22.81
2016-08-04T08:29:31.198Z,22.79
2016-08-04T08:30:31.226Z,22.81
2016-08-04T08:31:31.222Z,22.82
2016-08-04T08:32:31.247Z,22.84
2016-08-04T08:33:31.243Z,22.85
2016-08-04T08:34:31.941Z,22.89
2016-08-04T08:35:31.244Z,22.91
2016-08-04T08:37:31.269Z,22.92
2016-08-04T08:38:31.282Z,22.92
2016-08-04T08:39:31.287Z,22.96
2016-08-04T08:40:31.325Z,22.91
2016-08-04T08:41:31.314Z,22.91
2016-08-04T08:42:31.326Z,22.89
2016-08-04T08:43:31.338Z,22.94
2016-08-04T08:44:31.347Z,22.89
2016-08-04T08:45:31.352Z,22.91
2016-08-04T08:46:31.349Z,22.89
2016-08-04T08:47:31.344Z,22.91
2016-08-04T08:48:31.373Z,22.94
2016-08-04T08:49:31.418Z,23
2016-08-04T08:50:31.368Z,22.94
2016-08-04T08:51:31.406Z,22.92
2016-08-04T08:52:31.468Z,22.96
2016-08-04T08:53:31.407Z,22.89
2016-08-04T08:54:31.410Z,22.94
2016-08-04T08:55:31.419Z,22.97
2016-08-04T08:56:31.417Z,22.91
2016-08-04T08:57:31.456Z,22.91
2016-08-04T08:58:31.467Z,22.97
2016-08-04T08:59:31.491Z,22.96
2016-08-04T09:00:31.463Z,23
2016-08-04T09:01:31.507Z,23.06
2016-08-04T09:02:31.511Z,23.04
2016-08-04T09:03:31.517Z,23
2016-08-04T09:04:31.522Z,22.99
2016-08-04T09:05:31.512Z,23.04
2016-08-04T09:07:31.559Z,23.01
2016-08-04T09:08:31.557Z,23
2016-08-04T09:09:31.553Z,23.09
2016-08-04T09:10:31.564Z,23.03
2016-08-04T09:11:31.570Z,23.07
2016-08-04T09:12:31.606Z,23.03
2016-08-04T09:13:31.600Z,23.09
2016-08-04T09:14:31.608Z,23.09
2016-08-04T09:15:31.613Z,23.07
2016-08-04T09:16:31.620Z,23
2016-08-04T09:17:31.685Z,23.03
2016-08-04T09:18:31.660Z,23.09
2016-08-04T09:19:31.638Z,23.1
2016-08-04T09:20:31.668Z,23.03
2016-08-04T09:21:31.658Z,23.12
2016-08-04T09:22:31.675Z,23.09
2016-08-04T09:23:31.686Z,23.1
2016-08-04T09:24:31.719Z,23.12
2016-08-04T09:25:31.697Z,23.12
2016-08-04T09:26:31.725Z,23.15
2016-08-04T09:27:31.713Z,23.16
2016-08-04T09:28:31.714Z,23.22
2016-08-04T09:29:31.722Z,23.22
2016-08-04T09:30:31.740Z,23.16
2016-08-04T09:31:31.765Z,23.18
2016-08-04T09:32:31.769Z,23.21
2016-08-04T09:33:31.778Z,23.21
2016-08-04T09:34:31.788Z,23.18
2016-08-04T09:35:31.806Z,23.18
2016-08-04T09:36:31.792Z,23.22
2016-08-04T09:37:31.815Z,23.16
2016-08-04T09:38:31.829Z,23.16
2016-08-04T09:39:32.521Z,23.24
2016-08-04T09:40:31.826Z,23.29
2016-08-04T09:41:31.851Z,23.25
2016-08-04T09:42:31.871Z,23.25
2016-08-04T09:43:31.871Z,23.25
2016-08-04T09:44:31.887Z,23.29
2016-08-04T09:45:31.899Z,23.32
2016-08-04T09:46:31.880Z,23.32
2016-08-04T09:47:31.902Z,23.35
2016-08-04T09:48:31.921Z,23.34
2016-08-04T09:49:31.918Z,23.38
2016-08-04T09:50:31.929Z,23.28
2016-08-04T09:51:31.956Z,23.34
2016-08-04T09:52:31.944Z,23.37
2016-08-04T09:53:31.960Z,23.29
2016-08-04T09:54:31.962Z,23.37
2016-08-04T09:55:31.981Z,23.37
2016-08-04T09:56:31.992Z,23.4
2016-08-04T09:57:32.000Z,23.41
2016-08-04T09:58:31.991Z,23.38
2016-08-04T09:59:31.988Z,23.42
2016-08-04T10:00:32.027Z,23.41
2016-08-04T10:01:32.015Z,23.35
2016-08-04T10:02:32.028Z,23.41
2016-08-04T10:03:32.042Z,23.52
2016-08-04T10:04:32.042Z,23.42
2016-08-04T10:05:32.084Z,23.44
2016-08-04T10:06:32.061Z,23.5
2016-08-04T10:07:32.070Z,23.5
2016-08-04T10:08:32.098Z,23.55
2016-08-04T10:09:32.086Z,23.48
2016-08-04T10:10:32.101Z,23.52
2016-08-04T10:11:32.115Z,23.47
2016-08-04T10:12:32.147Z,23.55
2016-08-04T10:13:32.146Z,23.57
2016-08-04T10:14:32.130Z,23.52
2016-08-04T10:15:32.153Z,23.59
2016-08-04T10:16:32.155Z,23.57
2016-08-04T10:17:32.148Z,23.55
2016-08-04T10:18:32.165Z,23.59
2016-08-04T10:19:32.186Z,23.57
2016-08-04T10:20:32.198Z,23.63
2016-08-04T10:21:32.187Z,23.67
2016-08-04T10:22:32.201Z,23.71
2016-08-04T10:23:32.207Z,23.66
2016-08-04T10:24:32.225Z,23.72
2016-08-04T10:25:32.252Z,23.71
2016-08-04T10:26:32.259Z,23.63
2016-08-04T10:27:32.274Z,23.67
2016-08-04T10:28:32.279Z,23.71
2016-08-04T10:29:32.256Z,23.72
2016-08-04T10:30:32.269Z,23.75
2016-08-04T10:31:32.300Z,23.79
2016-08-04T10:32:32.313Z,23.72
2016-08-04T10:33:32.326Z,23.75
2016-08-04T10:34:32.320Z,23.84
2016-08-04T10:35:32.326Z,23.75
2016-08-04T10:36:32.340Z,23.78
2016-08-04T10:37:32.343Z,23.71
2016-08-04T10:38:32.372Z,23.78
2016-08-04T10:39:32.377Z,23.79
2016-08-04T10:40:33.073Z,23.82
2016-08-04T10:41:32.385Z,23.82
2016-08-04T10:42:32.394Z,23.85
2016-08-04T10:43:32.384Z,23.82
2016-08-04T10:44:32.393Z,23.84
2016-08-04T10:45:32.408Z,23.92
2016-08-04T10:46:32.425Z,23.89
2016-08-04T10:47:32.428Z,23.89
2016-08-04T10:48:32.468Z,23.84
2016-08-04T10:49:32.455Z,23.85
2016-08-04T10:50:32.454Z,23.96
2016-08-04T10:51:32.472Z,23.93
2016-08-04T10:52:32.488Z,23.97
2016-08-04T10:53:32.490Z,24.02
2016-08-04T10:54:32.499Z,23.97
2016-08-04T10:55:32.513Z,24.07
2016-08-04T10:56:32.521Z,24.08
2016-08-04T10:57:32.522Z,24.08
2016-08-04T10:58:32.544Z,24.04
2016-08-04T10:59:32.557Z,24.11
2016-08-04T11:00:32.581Z,24.09
2016-08-04T11:01:32.603Z,24.21
2016-08-04T11:02:32.597Z,24.12
2016-08-04T11:03:32.586Z,24.26
2016-08-04T11:04:32.586Z,24.18
2016-08-04T11:05:32.613Z,24.24
2016-08-04T11:06:32.614Z,24.17
2016-08-04T11:07:32.621Z,24.19
2016-08-04T11:08:32.628Z,24.27
2016-08-04T11:09:32.656Z,24.17
2016-08-04T11:10:32.650Z,24.24
2016-08-04T11:11:32.686Z,24.15
2016-08-04T11:12:32.658Z,24.27
2016-08-04T11:13:32.688Z,24.17
2016-08-04T11:14:32.686Z,24.29
2016-08-04T11:15:32.720Z,24.26
2016-08-04T11:16:32.705Z,24.3
2016-08-04T11:17:32.724Z,24.29
2016-08-04T11:18:32.747Z,24.3
2016-08-04T11:19:32.747Z,24.33
2016-08-04T11:20:32.758Z,24.34
2016-08-04T11:21:32.761Z,24.3
2016-08-04T11:22:32.775Z,24.3
2016-08-04T11:23:32.789Z,24.37
2016-08-04T11:24:32.791Z,24.39
2016-08-04T11:25:32.773Z,24.4
2016-08-04T11:26:32.803Z,24.37
2016-08-04T11:27:32.805Z,24.46
2016-08-04T11:28:32.817Z,24.4
2016-08-04T11:29:32.826Z,24.45
2016-08-04T11:30:32.834Z,24.51
2016-08-04T11:31:32.832Z,24.49
2016-08-04T11:32:32.862Z,24.44
2016-08-04T11:33:32.868Z,24.52
2016-08-04T11:34:32.864Z,24.49
2016-08-04T11:35:32.882Z,24.52
2016-08-04T11:36:32.893Z,24.48
2016-08-04T11:37:32.891Z,24.52
2016-08-04T11:38:32.920Z,24.54
2016-08-04T11:39:32.921Z,24.52
2016-08-04T11:40:32.944Z,24.59
2016-08-04T11:41:32.927Z,24.55
2016-08-04T11:42:32.942Z,24.71
2016-08-04T11:43:32.955Z,24.7
2016-08-04T11:44:32.984Z,24.77
2016-08-04T11:45:32.982Z,24.74
2016-08-04T11:46:32.990Z,24.69
2016-08-04T11:47:33.006Z,24.64
2016-08-04T11:48:33.015Z,24.64
2016-08-04T11:49:33.018Z,24.74
2016-08-04T11:50:33.028Z,24.74
2016-08-04T11:51:33.022Z,24.7
2016-08-04T11:52:33.058Z,24.7
2016-08-04T11:53:33.060Z,24.78
2016-08-04T11:54:33.070Z,24.74
2016-08-04T11:55:33.066Z,24.78
2016-08-04T11:56:33.093Z,24.77
2016-08-04T11:57:33.084Z,24.86
2016-08-04T11:58:33.122Z,24.74
2016-08-04T11:59:33.826Z,24.78
2016-08-04T12:00:33.114Z,24.85
2016-08-04T12:01:33.119Z,24.8
2016-08-04T12:02:33.126Z,24.83
2016-08-04T12:03:33.827Z,24.78
2016-08-04T12:04:33.172Z,24.83
2016-08-04T12:05:33.183Z,24.8
2016-08-04T12:06:33.172Z,24.92
2016-08-04T12:07:33.207Z,24.87
2016-08-04T12:08:33.208Z,24.89
2016-08-04T12:09:33.202Z,24.8
2016-08-04T12:10:33.202Z,24.92
2016-08-04T12:11:33.253Z,24.83
2016-08-04T12:12:33.235Z,24.94
2016-08-04T12:13:33.260Z,24.96
2016-08-04T12:14:33.256Z,25
2016-08-04T12:15:33.295Z,24.92
2016-08-04T12:16:33.272Z,25
2016-08-04T12:17:33.304Z,24.94
2016-08-04T12:18:33.297Z,24.93
2016-08-04T12:19:33.307Z,24.94
2016-08-04T12:20:33.302Z,24.97
2016-08-04T12:21:33.311Z,24.96
2016-08-04T12:22:33.326Z,24.94
2016-08-04T12:23:33.359Z,25.04
2016-08-04T12:24:33.353Z,25.07
2016-08-04T12:25:33.385Z,25.07
2016-08-04T12:26:33.383Z,25.05
2016-08-04T12:27:33.387Z,25.15
2016-08-04T12:28:33.395Z,25.09
2016-08-04T12:29:33.420Z,25.02
2016-08-04T12:30:33.409Z,25.01
2016-08-04T12:31:33.447Z,25.12
2016-08-04T12:32:33.444Z,25.17
2016-08-04T12:33:33.458Z,25.11
2016-08-04T12:34:33.470Z,25.09
2016-08-04T12:35:33.480Z,25.05
2016-08-04T12:36:33.506Z,25.08
2016-08-04T12:38:33.501Z,25.07
2016-08-04T12:39:33.493Z,25.14
2016-08-04T12:40:33.513Z,25.19
2016-08-04T12:41:33.540Z,25.11
2016-08-04T12:42:33.547Z,25.2
2016-08-04T12:43:33.553Z,25.19
2016-08-04T12:44:33.568Z,25.2
2016-08-04T12:45:33.561Z,25.2
2016-08-04T12:46:33.571Z,25.22
2016-08-04T12:47:33.581Z,25.24
2016-08-04T12:48:33.627Z,25.24
2016-08-04T12:49:33.599Z,25.26
2016-08-04T12:50:33.612Z,25.32
2016-08-04T12:51:33.633Z,25.34
2016-08-04T12:53:33.639Z,25.3
2016-08-04T12:54:33.673Z,25.34
2016-08-04T12:55:33.666Z,25.3
2016-08-04T12:56:33.663Z,25.32
2016-08-04T12:57:33.706Z,25.34
2016-08-04T12:58:33.689Z,25.38
2016-08-04T12:59:33.727Z,25.41
2016-08-04T13:00:33.758Z,25.39
2016-08-04T13:01:33.740Z,25.34
2016-08-04T13:02:33.745Z,25.34
2016-08-04T13:03:33.745Z,25.41
2016-08-04T13:04:33.751Z,25.44
2016-08-04T13:05:34.466Z,25.45